Time;durP1;ratioP1;P1;durP2;ratioP2;P2;SDS_P1;SDS_P2;PMS_P1;PMS_P2;Temp;Humidity;BMP_temperature;BMP_pressure;BME280_temperature;BME280_humidity;BME280_pressure;Samples;Min_cycle;Max_cycle;Signal;HPM_P1;HPM_P2
2021/01/12 00:00:20;;;;;;;6.00;3.80;;;;;;;;;;5057067;28;20450;-56
2021/01/12 00:02:45;;;;;;;8.70;4.97;;;;;;;;;;5058050;28;20036;-54
2021/01/12 00:05:11;;;;;;;12.40;9.32;;;;;;;;;;5056388;28;20025;-55
2021/01/12 00:07:36;;;;;;;13.27;11.68;;;;;;;;;;5059541;28;20038;-56
2021/01/12 00:10:03;;;;;;;12.10;9.90;;;;;;;;;;5056129;28;20103;-54
2021/01/12 00:12:28;;;;;;;10.02;7.38;;;;;;;;;;5059034;28;20029;-55
2021/01/12 00:14:53;;;;;;;10.70;9.57;;;;;;;;;;5057549;28;20133;-54
2021/01/12 00:17:19;;;;;;;5.78;5.28;;;;;;;;;;5057539;28;20040;-55
2021/01/12 00:19:44;;;;;;;5.05;3.28;;;;;;;;;;5056322;28;20107;-54
2021/01/12 00:22:14;;;;;;;8.60;4.50;;;;;;;;;;5062411;28;20066;-56
2021/01/12 00:24:42;;;;;;;4.38;2.90;;;;;;;;;;5059349;28;20032;-51
2021/01/12 00:27:07;;;;;;;6.68;4.57;;;;;;;;;;5062460;28;20029;-53
2021/01/12 00:29:33;;;;;;;6.93;3.60;;;;;;;;;;5059057;28;20639;-51
2021/01/12 00:31:58;;;;;;;11.40;4.50;;;;;;;;;;5062124;28;20111;-53
2021/01/12 00:34:23;;;;;;;6.10;3.60;;;;;;;;;;5060423;28;20024;-55
2021/01/12 00:36:50;;;;;;;4.50;3.28;;;;;;;;;;5062039;28;20136;-54
2021/01/12 00:39:15;;;;;;;3.47;2.75;;;;;;;;;;5056540;28;20055;-53
2021/01/12 00:41:41;;;;;;;3.05;2.72;;;;;;;;;;5058504;28;20406;-54
2021/01/12 00:44:06;;;;;;;5.80;3.65;;;;;;;;;;5055649;28;20075;-55
2021/01/12 00:46:34;;;;;;;3.85;2.65;;;;;;;;;;5063349;28;20098;-55
2021/01/12 00:49:00;;;;;;;2.92;2.47;;;;;;;;;;5055564;28;20035;-54
2021/01/12 00:51:32;;;;;;;7.22;3.25;;;;;;;;;;5057726;28;20021;-50
2021/01/12 00:53:57;;;;;;;4.65;3.22;;;;;;;;;;5052490;28;20502;-53
2021/01/12 00:56:22;;;;;;;5.03;4.07;;;;;;;;;;5061280;28;20036;-51
2021/01/12 00:58:47;;;;;;;6.47;4.40;;;;;;;;;;5057241;28;20029;-55
2021/01/12 01:01:13;;;;;;;4.70;3.85;;;;;;;;;;5055918;28;20481;-52
2021/01/12 01:03:38;;;;;;;6.40;4.40;;;;;;;;;;5054878;28;20052;-53
2021/01/12 01:06:06;;;;;;;11.23;5.05;;;;;;;;;;5055274;28;20055;-54
2021/01/12 01:08:31;;;;;;;8.73;6.25;;;;;;;;;;5057863;28;20040;-56
2021/01/12 01:10:57;;;;;;;16.00;2.65;;;;;;;;;;5055954;28;20041;-51
2021/01/12 01:13:25;;;;;;;4.18;3.15;;;;;;;;;;5057026;28;20064;-53
2021/01/12 01:15:50;;;;;;;6.82;4.60;;;;;;;;;;5056393;28;20036;-54
2021/01/12 01:18:16;;;;;;;7.15;4.10;;;;;;;;;;5055488;28;20032;-56
2021/01/12 01:20:41;;;;;;;7.85;5.88;;;;;;;;;;5057935;28;20101;-53
2021/01/12 01:23:06;;;;;;;6.60;5.47;;;;;;;;;;5055197;28;20065;-52
2021/01/12 01:25:31;;;;;;;13.35;4.30;;;;;;;;;;5054480;28;20050;-55
2021/01/12 01:27:57;;;;;;;10.00;6.45;;;;;;;;;;5060400;28;20039;-50
2021/01/12 01:30:22;;;;;;;7.82;5.70;;;;;;;;;;5059401;28;20107;-51
2021/01/12 01:32:47;;;;;;;22.63;6.43;;;;;;;;;;5059294;28;20197;-55
2021/01/12 01:35:13;;;;;;;6.38;4.35;;;;;;;;;;5060601;28;20036;-54
2021/01/12 01:37:38;;;;;;;7.18;5.43;;;;;;;;;;5057967;28;20039;-50
2021/01/12 01:40:05;;;;;;;4.93;3.20;;;;;;;;;;5061211;28;20024;-55
2021/01/12 01:42:30;;;;;;;4.93;3.55;;;;;;;;;;5058345;28;20054;-50
2021/01/12 01:44:56;;;;;;;17.30;9.80;;;;;;;;;;5057747;28;20049;-54
2021/01/12 01:47:22;;;;;;;12.93;8.90;;;;;;;;;;5056010;28;20581;-53
2021/01/12 01:49:47;;;;;;;12.70;8.35;;;;;;;;;;5056326;28;20036;-56
2021/01/12 01:52:12;;;;;;;14.05;7.50;;;;;;;;;;5056694;28;20103;-50
2021/01/12 01:54:38;;;;;;;6.82;4.05;;;;;;;;;;5056547;28;20742;-54
2021/01/12 01:57:04;;;;;;;7.72;5.20;;;;;;;;;;5055051;28;20463;-56
2021/01/12 01:59:29;;;;;;;10.23;5.68;;;;;;;;;;5057609;28;20028;-52
2021/01/12 02:01:54;;;;;;;7.57;5.00;;;;;;;;;;5062128;28;20028;-53
2021/01/12 02:04:23;;;;;;;7.00;5.88;;;;;;;;;;5059482;28;20427;-55
2021/01/12 02:06:48;;;;;;;6.10;3.70;;;;;;;;;;5059338;28;20032;-51
2021/01/12 02:09:32;;;;;;;3.92;2.25;;;;;;;;;;5053442;28;20157;-52
2021/01/12 02:11:59;;;;;;;8.05;3.05;;;;;;;;;;5054827;28;20366;-53
2021/01/12 02:14:26;;;;;;;9.10;3.50;;;;;;;;;;5056514;28;20273;-54
2021/01/12 02:16:52;;;;;;;13.00;3.72;;;;;;;;;;5053823;28;20371;-50
2021/01/12 02:19:19;;;;;;;5.97;3.20;;;;;;;;;;5058852;28;20035;-49
2021/01/12 02:21:46;;;;;;;7.72;4.45;;;;;;;;;;5050936;28;20044;-54
2021/01/12 02:24:12;;;;;;;10.90;6.35;;;;;;;;;;5057090;28;20024;-51
2021/01/12 02:26:37;;;;;;;6.85;6.22;;;;;;;;;;5057016;28;20033;-51
2021/01/12 02:29:03;;;;;;;9.95;7.45;;;;;;;;;;5060908;28;20734;-50
2021/01/12 02:31:29;;;;;;;13.65;6.85;;;;;;;;;;5057868;28;20036;-51
2021/01/12 02:33:55;;;;;;;17.83;8.27;;;;;;;;;;5091726;28;20036;-53
2021/01/12 02:36:21;;;;;;;11.45;6.57;;;;;;;;;;5057599;28;20094;-54
2021/01/12 02:38:47;;;;;;;12.40;8.32;;;;;;;;;;5057234;28;20079;-53
2021/01/12 02:41:13;;;;;;;8.75;5.13;;;;;;;;;;5058954;28;20028;-51
2021/01/12 02:43:39;;;;;;;6.93;5.28;;;;;;;;;;5057480;28;20086;-54
2021/01/12 02:46:04;;;;;;;9.20;6.18;;;;;;;;;;5059673;28;20071;-53
2021/01/12 02:48:29;;;;;;;6.65;3.13;;;;;;;;;;5056698;28;20033;-55
2021/01/12 02:50:55;;;;;;;3.33;2.38;;;;;;;;;;5057206;28;20025;-56
2021/01/12 02:53:20;;;;;;;9.55;3.03;;;;;;;;;;5057512;28;20029;-51
2021/01/12 02:55:45;;;;;;;8.00;4.60;;;;;;;;;;5056263;28;20370;-55
2021/01/12 02:58:10;;;;;;;4.43;3.03;;;;;;;;;;5054171;28;20082;-54
2021/01/12 03:00:36;;;;;;;7.95;4.15;;;;;;;;;;5056976;28;20419;-51
2021/01/12 03:03:01;;;;;;;6.75;4.38;;;;;;;;;;5060405;28;20024;-52
2021/01/12 03:05:26;;;;;;;7.22;4.05;;;;;;;;;;5058147;28;20154;-51
2021/01/12 03:07:53;;;;;;;4.70;3.83;;;;;;;;;;5058770;28;20044;-53
2021/01/12 03:10:19;;;;;;;7.78;3.53;;;;;;;;;;5059131;28;20111;-55
2021/01/12 03:12:44;;;;;;;9.63;4.22;;;;;;;;;;5060386;28;20108;-52
2021/01/12 03:15:10;;;;;;;5.97;3.75;;;;;;;;;;5063469;28;20032;-54
2021/01/12 03:17:35;;;;;;;8.80;4.28;;;;;;;;;;5059782;28;20048;-51
2021/01/12 03:20:00;;;;;;;5.15;3.45;;;;;;;;;;5055647;28;20021;-54
2021/01/12 03:22:26;;;;;;;11.27;8.68;;;;;;;;;;5059444;28;20463;-49
2021/01/12 03:24:51;;;;;;;7.28;5.25;;;;;;;;;;5058570;28;20028;-54
2021/01/12 03:27:16;;;;;;;10.65;5.07;;;;;;;;;;5056168;28;20069;-55
2021/01/12 03:29:42;;;;;;;8.98;4.93;;;;;;;;;;5059704;28;20031;-55
2021/01/12 03:32:07;;;;;;;9.30;7.10;;;;;;;;;;5057084;28;20032;-54
2021/01/12 03:34:32;;;;;;;13.90;7.38;;;;;;;;;;5059729;28;20020;-50
2021/01/12 03:36:57;;;;;;;10.05;7.13;;;;;;;;;;5057208;28;20396;-53
2021/01/12 03:39:23;;;;;;;15.07;7.00;;;;;;;;;;5058262;28;20383;-53
2021/01/12 03:41:48;;;;;;;7.57;5.70;;;;;;;;;;5058511;28;20537;-51
2021/01/12 03:44:13;;;;;;;9.75;6.43;;;;;;;;;;5058852;28;20059;-53
2021/01/12 03:46:39;;;;;;;12.23;5.97;;;;;;;;;;5061854;28;20561;-52
2021/01/12 03:49:05;;;;;;;7.63;3.70;;;;;;;;;;5057589;28;20470;-51
2021/01/12 03:51:30;;;;;;;14.52;5.38;;;;;;;;;;5063505;28;20060;-54
2021/01/12 03:53:55;;;;;;;5.13;4.20;;;;;;;;;;5062383;28;20060;-55
2021/01/12 03:56:21;;;;;;;6.00;3.80;;;;;;;;;;5061448;28;20093;-54
2021/01/12 03:58:46;;;;;;;5.32;3.92;;;;;;;;;;5059561;28;20029;-52
2021/01/12 04:01:12;;;;;;;3.55;3.13;;;;;;;;;;5062580;28;20111;-55
2021/01/12 04:03:38;;;;;;;4.32;3.22;;;;;;;;;;5059262;28;20111;-49
2021/01/12 04:06:09;;;;;;;6.30;3.67;;;;;;;;;;5062559;28;20081;-55
2021/01/12 04:08:34;;;;;;;4.25;2.83;;;;;;;;;;5059284;28;20147;-54
2021/01/12 04:11:00;;;;;;;7.05;3.50;;;;;;;;;;5062696;28;20043;-55
2021/01/12 04:13:25;;;;;;;9.07;5.07;;;;;;;;;;5060289;28;20158;-53
2021/01/12 04:15:50;;;;;;;5.90;4.22;;;;;;;;;;5060902;28;20029;-52
2021/01/12 04:18:16;;;;;;;6.85;3.80;;;;;;;;;;5061805;28;20028;-55
2021/01/12 04:20:42;;;;;;;5.03;4.07;;;;;;;;;;5059719;28;20125;-52
2021/01/12 04:23:07;;;;;;;13.63;5.55;;;;;;;;;;5061882;28;20135;-50
2021/01/12 04:25:35;;;;;;;6.47;4.53;;;;;;;;;;5055922;28;20480;-53
2021/01/12 04:28:01;;;;;;;6.95;5.93;;;;;;;;;;5056158;28;20067;-56
2021/01/12 04:30:26;;;;;;;19.65;10.10;;;;;;;;;;5060340;28;20024;-50
2021/01/12 04:32:52;;;;;;;6.15;5.22;;;;;;;;;;5061435;28;20036;-53
2021/01/12 04:35:17;;;;;;;11.77;5.18;;;;;;;;;;5060859;28;20028;-53
2021/01/12 04:37:42;;;;;;;8.70;6.68;;;;;;;;;;5059209;28;20041;-51
2021/01/12 04:40:08;;;;;;;10.95;6.45;;;;;;;;;;5061992;28;20074;-53
2021/01/12 04:42:33;;;;;;;7.03;5.93;;;;;;;;;;5059982;28;20090;-56
2021/01/12 04:45:02;;;;;;;9.02;5.57;;;;;;;;;;5061465;28;20533;-54
2021/01/12 04:47:28;;;;;;;10.30;7.00;;;;;;;;;;5059472;28;20467;-51
2021/01/12 04:49:54;;;;;;;6.35;5.35;;;;;;;;;;5056174;28;20033;-48
2021/01/12 04:52:19;;;;;;;6.05;4.97;;;;;;;;;;5055124;28;20029;-52
2021/01/12 04:54:45;;;;;;;7.18;5.03;;;;;;;;;;5057773;28;20059;-53
2021/01/12 04:57:13;;;;;;;7.90;7.18;;;;;;;;;;5059804;28;20039;-53
2021/01/12 04:59:38;;;;;;;10.52;7.47;;;;;;;;;;5058588;28;20021;-48
2021/01/12 05:02:03;;;;;;;9.02;6.78;;;;;;;;;;5061781;28;20097;-54
2021/01/12 05:04:29;;;;;;;9.00;7.50;;;;;;;;;;5059080;28;20032;-52
2021/01/12 05:06:55;;;;;;;11.85;7.82;;;;;;;;;;5060789;28;20037;-53
2021/01/12 05:09:23;;;;;;;6.70;5.05;;;;;;;;;;5060010;28;20043;-51
2021/01/12 05:11:49;;;;;;;9.38;5.90;;;;;;;;;;5059892;28;20039;-55
2021/01/12 05:14:17;;;;;;;7.63;6.57;;;;;;;;;;5061059;28;20036;-52
2021/01/12 05:16:50;;;;;;;14.25;6.40;;;;;;;;;;5058940;28;20028;-53
2021/01/12 05:19:18;;;;;;;11.02;8.32;;;;;;;;;;5059109;28;20391;-54
2021/01/12 05:21:44;;;;;;;13.90;8.85;;;;;;;;;;5059065;28;20037;-54
2021/01/12 05:24:11;;;;;;;9.20;7.45;;;;;;;;;;5061113;28;20485;-51
2021/01/12 05:26:37;;;;;;;13.73;9.90;;;;;;;;;;5057944;28;20445;-52
2021/01/12 05:29:03;;;;;;;8.65;6.55;;;;;;;;;;5061276;28;20429;-55
2021/01/12 05:31:29;;;;;;;9.48;6.05;;;;;;;;;;5057201;28;20043;-52
2021/01/12 05:33:54;;;;;;;17.30;9.30;;;;;;;;;;5059173;28;20562;-50
2021/01/12 05:36:20;;;;;;;14.52;7.88;;;;;;;;;;5059779;28;20533;-52
2021/01/12 05:38:47;;;;;;;9.43;7.05;;;;;;;;;;5059031;28;20541;-53
2021/01/12 05:41:13;;;;;;;14.40;8.82;;;;;;;;;;5054602;28;20035;-52
2021/01/12 05:43:39;;;;;;;8.90;7.53;;;;;;;;;;5057346;28;20029;-50
2021/01/12 05:46:08;;;;;;;12.73;8.68;;;;;;;;;;5054559;28;20071;-53
2021/01/12 05:48:38;;;;;;;11.77;10.73;;;;;;;;;;5058797;28;20198;-56
2021/01/12 05:51:04;;;;;;;19.70;17.55;;;;;;;;;;5055124;28;20033;-52
2021/01/12 05:53:42;;;;;;;9.60;8.70;;;;;;;;;;5058670;28;20056;-48
2021/01/12 05:56:11;;;;;;;9.02;6.75;;;;;;;;;;5054272;28;20033;-52
2021/01/12 05:58:41;;;;;;;11.20;5.50;;;;;;;;;;5056209;28;20075;-52
2021/01/12 06:01:08;;;;;;;4.93;4.22;;;;;;;;;;5054453;28;20064;-52
2021/01/12 06:03:34;;;;;;;9.88;5.43;;;;;;;;;;5060388;28;20028;-54
2021/01/12 06:06:00;;;;;;;10.93;7.97;;;;;;;;;;5092636;28;20053;-53
2021/01/12 06:08:26;;;;;;;11.18;9.88;;;;;;;;;;5058838;28;20071;-53
2021/01/12 06:10:53;;;;;;;10.20;8.65;;;;;;;;;;5059609;28;20039;-50
2021/01/12 06:13:18;;;;;;;11.23;5.85;;;;;;;;;;5059796;28;20093;-51
2021/01/12 06:15:49;;;;;;;8.93;6.53;;;;;;;;;;5056529;28;20040;-53
2021/01/12 06:18:16;;;;;;;11.35;6.85;;;;;;;;;;5060310;28;20131;-54
2021/01/12 06:20:53;;;;;;;14.38;8.30;;;;;;;;;;5089810;28;20029;-51
2021/01/12 06:23:25;;;;;;;13.02;6.80;;;;;;;;;;5060439;28;20031;-55
2021/01/12 06:25:50;;;;;;;;;;;;;;;;;;5055912;28;20036;-47
2021/01/12 06:28:15;;;;;;;10.27;6.23;;;;;;;;;;5058278;28;19916;-55
2021/01/12 06:30:41;;;;;;;11.05;8.10;;;;;;;;;;5053763;28;20289;-52
2021/01/12 06:33:09;;;;;;;21.17;15.88;;;;;;;;;;5057893;28;20021;-53
2021/01/12 06:35:37;;;;;;;10.68;9.48;;;;;;;;;;5053506;28;20047;-55
2021/01/12 06:38:05;;;;;;;14.35;12.32;;;;;;;;;;5053420;28;20128;-56
2021/01/12 06:40:31;;;;;;;11.55;9.50;;;;;;;;;;5054626;28;20087;-51
2021/01/12 06:42:57;;;;;;;10.77;9.27;;;;;;;;;;5057056;28;20540;-58
2021/01/12 06:45:23;;;;;;;10.52;5.53;;;;;;;;;;5057320;28;20052;-59
2021/01/12 06:47:48;;;;;;;10.52;5.63;;;;;;;;;;5059450;28;20052;-59
2021/01/12 06:50:16;;;;;;;13.00;8.90;;;;;;;;;;5057648;28;20029;-58
2021/01/12 06:52:44;;;;;;;10.40;7.75;;;;;;;;;;5064917;28;20055;-59
2021/01/12 06:55:10;;;;;;;13.07;6.13;;;;;;;;;;5056982;28;20086;-58
2021/01/12 06:57:36;;;;;;;4.97;3.97;;;;;;;;;;5060408;28;20129;-55
2021/01/12 07:00:04;;;;;;;12.63;5.78;;;;;;;;;;5060696;28;20459;-57
2021/01/12 07:02:32;;;;;;;9.90;7.22;;;;;;;;;;5057436;28;20103;-57
2021/01/12 07:05:10;;;;;;;12.77;5.18;;;;;;;;;;5057867;28;20527;-56
2021/01/12 07:07:39;;;;;;;12.48;5.20;;;;;;;;;;5057263;28;20042;-56
2021/01/12 07:10:09;;;;;;;11.18;6.88;;;;;;;;;;5057209;28;20418;-55
2021/01/12 07:12:35;;;;;;;15.15;6.82;;;;;;;;;;5060319;28;20025;-55
2021/01/12 07:15:05;;;;;;;6.60;5.93;;;;;;;;;;5058211;28;20542;-53
2021/01/12 07:17:34;;;;;;;7.25;4.78;;;;;;;;;;5059139;28;20037;-53
2021/01/12 07:20:18;;;;;;;12.00;10.90;;;;;;;;;;5057031;28;20025;-56
2021/01/12 07:22:54;;;;;;;26.33;13.65;;;;;;;;;;5060118;28;20041;-55
2021/01/12 07:25:27;;;;;;;11.68;5.43;;;;;;;;;;5057837;28;20060;-54
2021/01/12 07:28:11;;;;;;;23.15;17.55;;;;;;;;;;5058017;28;20394;-55
2021/01/12 07:30:39;;;;;;;27.92;18.58;;;;;;;;;;5060494;28;20025;-56
2021/01/12 07:33:05;;;;;;;17.05;13.80;;;;;;;;;;5063374;28;20028;-55
2021/01/12 07:35:32;;;;;;;20.45;11.48;;;;;;;;;;5060275;28;20082;-55
2021/01/12 07:37:57;;;;;;;15.15;10.85;;;;;;;;;;5062603;28;20103;-55
2021/01/12 07:40:23;;;;;;;10.07;8.80;;;;;;;;;;5062448;28;20071;-55
2021/01/12 07:42:56;;;;;;;11.07;9.07;;;;;;;;;;5063512;28;20140;-54
2021/01/12 07:45:23;;;;;;;25.13;8.35;;;;;;;;;;5062672;28;20056;-55
2021/01/12 07:47:49;;;;;;;7.70;6.47;;;;;;;;;;5059244;28;20483;-54
2021/01/12 07:50:14;;;;;;;44.15;39.60;;;;;;;;;;5055117;28;20059;-54
2021/01/12 07:52:40;;;;;;;46.70;27.70;;;;;;;;;;5058979;28;20065;-52
2021/01/12 07:55:06;;;;;;;17.02;10.18;;;;;;;;;;5062939;28;20063;-55
2021/01/12 07:57:31;;;;;;;11.35;5.93;;;;;;;;;;5059043;28;20041;-57
2021/01/12 07:59:56;;;;;;;15.25;6.30;;;;;;;;;;5063938;28;20024;-55
2021/01/12 08:02:24;;;;;;;15.43;10.70;;;;;;;;;;5062108;28;20040;-55
2021/01/12 08:04:49;;;;;;;15.98;9.15;;;;;;;;;;5064943;28;20107;-54
2021/01/12 08:07:22;;;;;;;20.17;8.18;;;;;;;;;;5065600;28;20123;-55
2021/01/12 08:09:51;;;;;;;11.32;8.85;;;;;;;;;;5062511;28;20039;-55
2021/01/12 08:12:17;;;;;;;18.83;10.95;;;;;;;;;;5064110;28;20036;-56
2021/01/12 08:14:42;;;;;;;17.02;9.77;;;;;;;;;;5061483;28;20025;-57
2021/01/12 08:17:08;;;;;;;14.52;9.55;;;;;;;;;;5062590;28;20512;-54
2021/01/12 08:19:36;;;;;;;16.33;11.68;;;;;;;;;;5059161;28;20033;-57
2021/01/12 08:22:02;;;;;;;17.92;12.23;;;;;;;;;;5055746;28;20033;-56
2021/01/12 08:24:27;;;;;;;15.48;10.43;;;;;;;;;;5057620;28;20422;-55
2021/01/12 08:26:54;;;;;;;12.75;8.65;;;;;;;;;;5061439;28;20078;-55
2021/01/12 08:29:23;;;;;;;25.92;16.90;;;;;;;;;;5056725;28;20078;-55
2021/01/12 08:31:52;;;;;;;26.50;16.50;;;;;;;;;;5057460;28;20052;-56
2021/01/12 08:34:20;;;;;;;26.70;17.25;;;;;;;;;;5056053;28;20403;-57
2021/01/12 08:36:46;;;;;;;13.95;11.63;;;;;;;;;;5058330;28;20036;-56
2021/01/12 08:39:13;;;;;;;13.50;8.50;;;;;;;;;;5058683;28;20083;-56
2021/01/12 08:41:42;;;;;;;14.70;8.95;;;;;;;;;;5058440;28;20025;-61
2021/01/12 08:44:09;;;;;;;19.42;8.27;;;;;;;;;;5055371;28;20037;-54
2021/01/12 08:46:34;;;;;;;26.67;16.27;;;;;;;;;;5055225;28;20349;-57
2021/01/12 08:48:59;;;;;;;28.23;19.30;;;;;;;;;;5061784;28;20486;-56
2021/01/12 08:51:28;;;;;;;20.25;9.85;;;;;;;;;;5060087;28;20486;-58
2021/01/12 08:53:56;;;;;;;11.52;6.00;;;;;;;;;;5061016;28;20064;-61
2021/01/12 08:56:22;;;;;;;9.45;5.78;;;;;;;;;;5061463;28;20036;-61
2021/01/12 08:58:47;;;;;;;13.25;6.10;;;;;;;;;;5057087;28;20032;-61
2021/01/12 09:01:16;;;;;;;11.93;5.53;;;;;;;;;;5055228;28;20043;-62
2021/01/12 09:03:42;;;;;;;23.20;7.57;;;;;;;;;;5057881;28;20140;-61
2021/01/12 09:06:17;;;;;;;13.60;8.77;;;;;;;;;;5053283;28;20101;-62
2021/01/12 09:08:43;;;;;;;7.68;5.50;;;;;;;;;;5058853;28;20037;-62
2021/01/12 09:11:08;;;;;;;22.27;6.30;;;;;;;;;;5063385;28;20493;-62
2021/01/12 09:13:34;;;;;;;12.30;3.53;;;;;;;;;;5058515;28;20072;-62
2021/01/12 09:16:00;;;;;;;22.92;7.47;;;;;;;;;;5061282;28;20028;-62
2021/01/12 09:18:25;;;;;;;10.35;6.20;;;;;;;;;;5059193;28;20774;-62
2021/01/12 09:20:59;;;;;;;15.32;9.38;;;;;;;;;;5059768;28;20044;-62
2021/01/12 09:23:24;;;;;;;19.80;6.93;;;;;;;;;;5059779;28;20029;-62
2021/01/12 09:25:53;;;;;;;16.88;4.45;;;;;;;;;;5059645;28;20025;-63
2021/01/12 09:28:19;;;;;;;3.58;2.35;;;;;;;;;;5060082;28;20526;-62
2021/01/12 09:30:46;;;;;;;14.85;4.03;;;;;;;;;;5061787;28;20079;-62
2021/01/12 09:33:12;;;;;;;13.43;5.15;;;;;;;;;;5058122;28;20731;-62
2021/01/12 09:35:38;;;;;;;7.18;3.05;;;;;;;;;;5061043;28;20032;-62
2021/01/12 09:38:04;;;;;;;7.80;3.78;;;;;;;;;;5061648;28;20040;-62
2021/01/12 09:40:29;;;;;;;8.90;3.90;;;;;;;;;;5063226;28;20031;-61
2021/01/12 09:42:55;;;;;;;7.05;3.50;;;;;;;;;;5063080;28;20032;-59
2021/01/12 09:45:20;;;;;;;3.45;2.33;;;;;;;;;;5062331;28;20053;-59
2021/01/12 09:47:46;;;;;;;8.73;3.65;;;;;;;;;;5063358;28;20216;-61
2021/01/12 09:50:12;;;;;;;10.13;3.72;;;;;;;;;;5061868;28;20079;-60
2021/01/12 09:52:38;;;;;;;6.40;3.38;;;;;;;;;;5061196;28;20037;-60
2021/01/12 09:55:03;;;;;;;3.13;2.53;;;;;;;;;;5053024;28;20036;-60
2021/01/12 09:57:28;;;;;;;18.65;5.53;;;;;;;;;;5056514;28;20613;-61
2021/01/12 09:59:54;;;;;;;45.50;24.58;;;;;;;;;;5055302;28;20043;-60
2021/01/12 10:02:19;;;;;;;12.50;6.55;;;;;;;;;;5055480;28;20045;-61
2021/01/12 10:04:45;;;;;;;13.38;10.20;;;;;;;;;;5056319;28;20078;-61
2021/01/12 10:07:10;;;;;;;18.00;7.03;;;;;;;;;;5054270;28;20040;-60
2021/01/12 10:09:37;;;;;;;7.55;5.05;;;;;;;;;;5057375;28;20036;-61
2021/01/12 10:12:03;;;;;;;5.30;3.22;;;;;;;;;;5054167;28;20099;-62
2021/01/12 10:14:28;;;;;;;13.07;6.18;;;;;;;;;;5056131;28;20392;-61
2021/01/12 10:16:53;;;;;;;7.22;4.60;;;;;;;;;;5055113;28;20028;-61
2021/01/12 10:19:19;;;;;;;15.45;9.60;;;;;;;;;;5055052;28;20494;-61
2021/01/12 10:21:44;;;;;;;6.57;3.20;;;;;;;;;;5059346;28;20039;-61
2021/01/12 10:24:09;;;;;;;4.40;3.22;;;;;;;;;;5058018;28;20033;-61
2021/01/12 10:26:35;;;;;;;15.30;4.50;;;;;;;;;;5061351;28;20082;-56
2021/01/12 10:29:01;;;;;;;11.25;5.90;;;;;;;;;;5058246;28;20033;-61
2021/01/12 10:31:26;;;;;;;8.32;3.88;;;;;;;;;;5060078;28;20702;-60
2021/01/12 10:33:52;;;;;;;16.02;7.35;;;;;;;;;;5059170;28;20036;-60
2021/01/12 10:36:18;;;;;;;10.98;7.30;;;;;;;;;;5058992;28;20556;-62
2021/01/12 10:38:43;;;;;;;3.95;3.17;;;;;;;;;;5062510;28;20178;-60
2021/01/12 10:41:09;;;;;;;9.93;3.33;;;;;;;;;;5058384;28;20080;-59
2021/01/12 10:43:34;;;;;;;5.35;2.13;;;;;;;;;;5061119;28;20032;-60
2021/01/12 10:46:00;;;;;;;18.63;4.90;;;;;;;;;;5060212;28;20060;-61
2021/01/12 10:48:25;;;;;;;7.55;5.30;;;;;;;;;;5060026;28;20052;-58
2021/01/12 10:50:51;;;;;;;5.30;3.55;;;;;;;;;;5061170;28;20485;-59
2021/01/12 10:53:16;;;;;;;7.05;4.10;;;;;;;;;;5061444;28;20041;-62
2021/01/12 10:55:41;;;;;;;11.73;3.83;;;;;;;;;;5060746;28;20447;-60
2021/01/12 10:58:07;;;;;;;3.75;3.28;;;;;;;;;;5057814;28;20490;-60
2021/01/12 11:00:32;;;;;;;11.88;3.42;;;;;;;;;;5060322;28;20194;-61
2021/01/12 11:02:58;;;;;;;12.50;3.53;;;;;;;;;;5057868;28;20056;-59
2021/01/12 11:05:23;;;;;;;13.13;3.22;;;;;;;;;;5058904;28;20024;-58
2021/01/12 11:07:48;;;;;;;16.23;5.95;;;;;;;;;;5058962;28;20534;-60
2021/01/12 11:10:14;;;;;;;6.35;3.05;;;;;;;;;;5057470;28;20025;-61
2021/01/12 11:12:39;;;;;;;10.48;3.53;;;;;;;;;;5060273;28;20033;-61
2021/01/12 11:15:06;;;;;;;14.05;5.45;;;;;;;;;;5057236;28;20856;-60
2021/01/12 11:17:33;;;;;;;14.82;2.70;;;;;;;;;;5059843;28;20155;-65
2021/01/12 11:19:59;;;;;;;3.60;1.98;;;;;;;;;;5057769;28;20734;-60
2021/01/12 11:22:27;;;;;;;10.13;4.15;;;;;;;;;;5058345;28;20035;-60
2021/01/12 11:24:56;;;;;;;4.97;2.38;;;;;;;;;;5063367;28;20044;-59
2021/01/12 11:27:22;;;;;;;12.52;2.00;;;;;;;;;;5062399;28;20055;-60
2021/01/12 11:29:47;;;;;;;5.55;4.30;;;;;;;;;;5062031;28;20439;-61
2021/01/12 11:32:13;;;;;;;5.82;3.00;;;;;;;;;;5062974;28;20394;-58
2021/01/12 11:34:38;;;;;;;9.90;3.63;;;;;;;;;;5060666;28;20112;-56
2021/01/12 11:37:04;;;;;;;9.32;2.83;;;;;;;;;;5063894;28;20043;-60
2021/01/12 11:39:30;;;;;;;6.18;2.40;;;;;;;;;;5061503;28;20596;-59
2021/01/12 11:41:56;;;;;;;6.35;3.05;;;;;;;;;;5062256;28;20086;-60
2021/01/12 11:44:22;;;;;;;6.43;2.35;;;;;;;;;;5062352;28;20024;-59
2021/01/12 11:46:48;;;;;;;4.78;2.13;;;;;;;;;;5062331;28;20057;-59
2021/01/12 11:49:13;;;;;;;7.13;3.03;;;;;;;;;;5066071;28;20033;-59
2021/01/12 11:51:40;;;;;;;2.78;2.10;;;;;;;;;;5064568;28;20032;-58
2021/01/12 11:54:07;;;;;;;3.80;2.67;;;;;;;;;;5064791;28;20064;-57
2021/01/12 11:56:32;;;;;;;18.75;5.38;;;;;;;;;;5061111;28;20033;-60
2021/01/12 11:58:58;;;;;;;18.80;5.07;;;;;;;;;;5062937;28;20466;-57
2021/01/12 12:01:23;;;;;;;9.00;3.78;;;;;;;;;;5060211;28;20447;-65
2021/01/12 12:03:48;;;;;;;16.65;9.82;;;;;;;;;;5054611;28;20063;-58
2021/01/12 12:06:13;;;;;;;9.02;2.05;;;;;;;;;;5062316;28;20028;-61
2021/01/12 12:08:39;;;;;;;8.63;5.28;;;;;;;;;;5062392;28;20040;-64
2021/01/12 12:11:04;;;;;;;8.43;2.20;;;;;;;;;;5054981;28;20036;-61
2021/01/12 12:13:30;;;;;;;13.30;3.33;;;;;;;;;;5059562;28;20036;-60
2021/01/12 12:15:55;;;;;;;5.03;1.75;;;;;;;;;;5056732;28;20497;-62
2021/01/12 12:18:20;;;;;;;6.47;2.85;;;;;;;;;;5058519;28;20055;-59
2021/01/12 12:20:46;;;;;;;3.05;1.42;;;;;;;;;;5057937;28;20043;-61
2021/01/12 12:23:11;;;;;;;3.58;1.65;;;;;;;;;;5062263;28;20041;-59
2021/01/12 12:25:36;;;;;;;2.88;1.92;;;;;;;;;;5057445;28;20033;-60
2021/01/12 12:28:02;;;;;;;2.17;1.95;;;;;;;;;;5063254;28;20487;-64
2021/01/12 12:30:28;;;;;;;2.80;1.77;;;;;;;;;;5058843;28;20110;-58
2021/01/12 12:32:53;;;;;;;4.50;1.92;;;;;;;;;;5059055;28;20044;-61
2021/01/12 12:35:21;;;;;;;6.47;1.17;;;;;;;;;;5052413;28;20352;-60
2021/01/12 12:37:47;;;;;;;3.85;1.75;;;;;;;;;;5057946;28;20086;-60
2021/01/12 12:40:13;;;;;;;4.15;1.23;;;;;;;;;;5058878;28;20028;-61
2021/01/12 12:42:38;;;;;;;8.25;1.85;;;;;;;;;;5059736;28;20037;-60
2021/01/12 12:45:04;;;;;;;3.50;1.92;;;;;;;;;;5055753;28;20060;-60
2021/01/12 12:47:29;;;;;;;5.18;1.10;;;;;;;;;;5058174;28;20040;-63
2021/01/12 12:49:55;;;;;;;6.15;3.45;;;;;;;;;;5058712;28;20486;-60
2021/01/12 12:52:20;;;;;;;8.07;3.08;;;;;;;;;;5060355;28;20103;-60
2021/01/12 12:54:45;;;;;;;3.58;1.70;;;;;;;;;;5057104;28;20041;-61
2021/01/12 12:57:12;;;;;;;3.65;2.15;;;;;;;;;;5062274;28;20063;-61
2021/01/12 12:59:37;;;;;;;19.10;4.47;;;;;;;;;;5056008;28;20051;-61
2021/01/12 13:02:03;;;;;;;4.03;2.40;;;;;;;;;;5060793;28;20638;-59
2021/01/12 13:04:28;;;;;;;2.78;2.33;;;;;;;;;;5062814;28;20721;-61
2021/01/12 13:06:53;;;;;;;6.85;3.00;;;;;;;;;;5060948;28;20047;-59
2021/01/12 13:09:19;;;;;;;2.92;2.33;;;;;;;;;;5062181;28;20389;-62
2021/01/12 13:11:45;;;;;;;13.25;2.45;;;;;;;;;;5061224;28;20024;-61
2021/01/12 13:14:14;;;;;;;1.30;1.00;;;;;;;;;;5062637;28;20032;-61
2021/01/12 13:16:41;;;;;;;3.92;2.65;;;;;;;;;;5060624;28;20064;-63
2021/01/12 13:19:10;;;;;;;4.13;1.80;;;;;;;;;;5062802;28;20033;-62
2021/01/12 13:21:36;;;;;;;2.28;1.70;;;;;;;;;;5062107;28;20041;-63
2021/01/12 13:24:01;;;;;;;7.60;2.75;;;;;;;;;;5060119;28;20111;-56
2021/01/12 13:26:26;;;;;;;18.05;10.77;;;;;;;;;;5060738;28;20028;-63
2021/01/12 13:28:52;;;;;;;15.75;6.53;;;;;;;;;;5061101;28;20021;-63
2021/01/12 13:31:17;;;;;;;14.65;8.60;;;;;;;;;;5062007;28;20537;-64
2021/01/12 13:33:44;;;;;;;14.38;4.93;;;;;;;;;;5057972;28;20033;-63
2021/01/12 13:36:10;;;;;;;6.57;2.13;;;;;;;;;;5059962;28;20028;-62
2021/01/12 13:38:35;;;;;;;8.63;3.85;;;;;;;;;;5057746;28;20356;-62
2021/01/12 13:41:00;;;;;;;6.55;5.90;;;;;;;;;;5058980;28;20086;-62
2021/01/12 13:43:26;;;;;;;5.60;3.92;;;;;;;;;;5058820;28;20450;-63
2021/01/12 13:45:51;;;;;;;13.85;12.43;;;;;;;;;;5057016;28;20060;-63
2021/01/12 13:48:16;;;;;;;5.68;4.63;;;;;;;;;;5059639;28;20050;-63
2021/01/12 13:50:42;;;;;;;5.30;4.05;;;;;;;;;;5054034;28;20542;-63
2021/01/12 13:53:07;;;;;;;3.35;1.85;;;;;;;;;;5053973;28;20040;-60
2021/01/12 13:55:33;;;;;;;10.50;4.07;;;;;;;;;;5054017;28;20375;-58
2021/01/12 13:58:01;;;;;;;4.35;2.60;;;;;;;;;;5059552;28;20110;-55
2021/01/12 14:00:27;;;;;;;2.92;1.90;;;;;;;;;;5056197;28;20050;-54
2021/01/12 14:02:53;;;;;;;6.78;1.98;;;;;;;;;;5058841;28;20025;-56
2021/01/12 14:05:19;;;;;;;3.22;2.25;;;;;;;;;;5057118;28;20064;-58
2021/01/12 14:07:44;;;;;;;2.00;1.20;;;;;;;;;;5058020;28;20052;-56
2021/01/12 14:10:10;;;;;;;2.72;1.85;;;;;;;;;;5058373;28;20122;-53
2021/01/12 14:12:35;;;;;;;3.28;2.17;;;;;;;;;;5057491;28;20056;-53
2021/01/12 14:15:01;;;;;;;3.47;1.95;;;;;;;;;;5091281;28;20046;-56
2021/01/12 14:17:27;;;;;;;6.25;1.80;;;;;;;;;;5059017;28;20040;-56
2021/01/12 14:19:54;;;;;;;3.67;1.48;;;;;;;;;;5057131;28;20036;-58
2021/01/12 14:22:20;;;;;;;5.35;2.95;;;;;;;;;;5059001;28;20021;-58
2021/01/12 14:24:49;;;;;;;2.65;1.88;;;;;;;;;;5056032;28;20052;-53
2021/01/12 14:27:15;;;;;;;1.85;1.05;;;;;;;;;;5059888;28;20347;-55
2021/01/12 14:29:41;;;;;;;4.10;2.20;;;;;;;;;;5053825;28;20036;-51